createdAt,value
2023-05-25T00:01:59.409Z,15.30
2023-05-25T00:04:30.538Z,12.83
2023-05-25T00:06:59.264Z,10.50
2023-05-25T00:09:27.983Z,11.43
2023-05-25T00:11:56.624Z,8.80
2023-05-25T00:14:25.209Z,11.97
2023-05-25T00:16:53.840Z,9.27
2023-05-25T00:19:23.228Z,10.77
2023-05-25T00:21:54.657Z,13.63
2023-05-25T00:24:23.180Z,8.43
2023-05-25T00:26:51.726Z,8.70
2023-05-25T00:29:20.402Z,8.43
2023-05-25T00:31:50.861Z,6.93
2023-05-25T00:34:20.851Z,9.20
2023-05-25T00:36:52.112Z,6.20
2023-05-25T00:39:21.813Z,8.27
2023-05-25T00:41:50.998Z,6.70
2023-05-25T00:44:22.009Z,7.33
2023-05-25T00:46:52.457Z,9.40
2023-05-25T00:49:23.201Z,11.50
2023-05-25T00:51:54.194Z,8.87
2023-05-25T00:54:58.961Z,6.50
2023-05-25T00:57:34.224Z,8.90
2023-05-25T01:00:08.784Z,13.03
2023-05-25T01:02:37.920Z,16.33
2023-05-25T01:05:09.867Z,8.57
2023-05-25T01:07:43.302Z,7.23
2023-05-25T01:10:14.206Z,7.60
2023-05-25T01:12:45.610Z,12.47
2023-05-25T01:15:14.778Z,10.10
2023-05-25T01:17:44.516Z,9.90
2023-05-25T01:20:13.785Z,6.80
2023-05-25T01:23:06.155Z,5.67
2023-05-25T01:25:41.415Z,10.53
2023-05-25T01:28:16.832Z,12.80
2023-05-25T01:30:50.618Z,10.70
2023-05-25T01:33:20.205Z,16.57
2023-05-25T01:35:51.326Z,11.47
2023-05-25T01:38:21.676Z,8.10
2023-05-25T01:40:50.233Z,8.83
2023-05-25T01:43:19.258Z,9.13
2023-05-25T01:45:48.551Z,9.47
2023-05-25T01:48:31.396Z,11.73
2023-05-25T01:51:03.248Z,10.90
2023-05-25T01:53:37.878Z,7.47
2023-05-25T01:56:11.464Z,10.00
2023-05-25T01:58:41.531Z,9.37
2023-05-25T02:01:11.484Z,9.03
2023-05-25T02:03:42.145Z,11.00
2023-05-25T02:06:12.199Z,9.93
2023-05-25T02:08:43.859Z,14.27
2023-05-25T02:11:14.563Z,6.90
2023-05-25T02:13:43.194Z,8.73
2023-05-25T02:16:11.893Z,7.13
2023-05-25T02:18:45.903Z,11.10
2023-05-25T02:21:14.509Z,9.63
2023-05-25T02:23:44.411Z,6.10
2023-05-25T02:26:13.000Z,13.97
2023-05-25T02:28:41.594Z,17.30
2023-05-25T02:31:10.224Z,5.90
2023-05-25T02:33:38.899Z,10.87
2023-05-25T02:36:08.021Z,15.33
2023-05-25T02:38:36.649Z,11.47
2023-05-25T02:41:06.659Z,4.83
2023-05-25T02:43:35.563Z,13.57
2023-05-25T02:46:04.219Z,4.63
2023-05-25T02:48:32.783Z,8.33
2023-05-25T02:51:02.918Z,6.50
2023-05-25T02:53:31.707Z,7.43
2023-05-25T02:56:02.161Z,11.77
2023-05-25T02:58:35.345Z,8.43
2023-05-25T03:01:18.255Z,9.33
2023-05-25T03:03:52.598Z,10.50
2023-05-25T03:06:23.030Z,5.50
2023-05-25T03:08:55.263Z,10.70
2023-05-25T03:11:23.919Z,11.07
2023-05-25T03:13:56.093Z,11.20
2023-05-25T03:16:25.988Z,5.60
2023-05-25T03:18:55.865Z,10.33
2023-05-25T03:21:24.792Z,7.93
2023-05-25T03:23:53.383Z,8.17
2023-05-25T03:26:22.022Z,12.00
2023-05-25T03:28:52.705Z,7.63
2023-05-25T03:31:22.745Z,8.57
2023-05-25T03:33:51.439Z,7.90
2023-05-25T03:36:22.419Z,11.20
2023-05-25T03:38:51.208Z,6.57
2023-05-25T03:41:20.443Z,7.93
2023-05-25T03:43:50.233Z,4.77
2023-05-25T03:46:19.005Z,5.63
2023-05-25T03:48:49.249Z,10.33
2023-05-25T03:51:17.928Z,6.37
2023-05-25T03:53:47.420Z,7.87
2023-05-25T03:56:16.041Z,8.00
2023-05-25T03:58:44.667Z,6.67
2023-05-25T04:01:13.729Z,9.27
2023-05-25T04:03:42.520Z,8.47
2023-05-25T04:06:12.714Z,10.77
2023-05-25T04:08:41.993Z,11.27
2023-05-25T04:11:10.694Z,12.43
2023-05-25T04:13:40.424Z,12.07
2023-05-25T04:16:12.360Z,10.53
2023-05-25T04:18:41.956Z,10.30
2023-05-25T04:21:12.107Z,12.80
2023-05-25T04:23:40.917Z,7.33
2023-05-25T04:26:10.381Z,5.53
2023-05-25T04:28:41.821Z,6.80
2023-05-25T04:31:27.161Z,7.17
2023-05-25T04:34:15.080Z,6.07
2023-05-25T04:36:53.664Z,7.10
2023-05-25T04:39:22.458Z,7.13
2023-05-25T04:41:55.777Z,7.27
2023-05-25T04:44:25.795Z,5.93
2023-05-25T04:46:55.535Z,10.03
2023-05-25T04:49:31.427Z,8.77
2023-05-25T04:52:01.701Z,5.30
2023-05-25T04:54:32.227Z,6.90
2023-05-25T04:57:03.785Z,9.13
2023-05-25T04:59:33.710Z,8.63
2023-05-25T05:02:02.582Z,9.30
2023-05-25T05:04:31.213Z,9.27
2023-05-25T05:07:01.203Z,8.37
2023-05-25T05:09:32.101Z,5.63
2023-05-25T05:12:03.271Z,6.13
2023-05-25T05:14:36.978Z,11.47
2023-05-25T05:17:06.055Z,13.37
2023-05-25T05:19:35.103Z,11.60
2023-05-25T05:22:08.636Z,11.67
2023-05-25T05:24:39.524Z,9.37
2023-05-25T05:27:08.243Z,8.97
2023-05-25T05:29:46.091Z,18.67
2023-05-25T05:32:15.057Z,15.57
2023-05-25T05:34:44.007Z,9.43
2023-05-25T05:37:26.532Z,9.37
2023-05-25T05:39:55.091Z,9.37
2023-05-25T05:42:23.714Z,15.27
2023-05-25T05:44:52.314Z,16.43
2023-05-25T05:47:21.300Z,12.63
2023-05-25T05:49:49.883Z,12.47
2023-05-25T05:52:18.766Z,14.30
2023-05-25T05:54:48.742Z,15.40
2023-05-25T05:57:18.138Z,19.63
2023-05-25T05:59:46.791Z,10.93
2023-05-25T06:02:15.463Z,9.70
2023-05-25T06:04:44.192Z,9.73
2023-05-25T06:07:14.132Z,12.30
2023-05-25T06:09:43.158Z,7.60
2023-05-25T06:12:13.590Z,19.73
2023-05-25T06:14:42.787Z,13.67
2023-05-25T06:17:11.472Z,11.80
2023-05-25T06:19:40.304Z,12.43
2023-05-25T06:22:08.981Z,10.50
2023-05-25T06:24:37.574Z,11.93
2023-05-25T06:27:06.582Z,10.90
2023-05-25T06:29:37.441Z,8.30
2023-05-25T06:32:06.839Z,10.13
2023-05-25T06:34:38.069Z,13.23
2023-05-25T06:37:07.115Z,13.80
2023-05-25T06:39:36.784Z,15.07
2023-05-25T06:42:05.936Z,8.63
2023-05-25T06:44:37.016Z,8.23
2023-05-25T06:47:10.191Z,14.30
2023-05-25T06:49:38.891Z,13.83
2023-05-25T06:52:07.617Z,12.43
2023-05-25T06:54:36.202Z,11.30
2023-05-25T06:57:04.893Z,10.03
2023-05-25T06:59:33.540Z,12.70
2023-05-25T07:02:03.567Z,12.83
2023-05-25T07:04:32.991Z,13.47
2023-05-25T07:07:01.657Z,9.10
2023-05-25T07:09:30.286Z,7.37
2023-05-25T07:11:58.957Z,10.23
2023-05-25T07:14:27.543Z,10.43
2023-05-25T07:16:56.191Z,8.70
2023-05-25T07:19:26.159Z,8.63
2023-05-25T07:21:54.767Z,10.43
2023-05-25T07:24:23.406Z,8.80
2023-05-25T07:26:52.002Z,13.77
2023-05-25T07:29:20.574Z,8.60
2023-05-25T07:31:49.410Z,15.60
2023-05-25T07:34:18.092Z,10.57
2023-05-25T07:36:48.133Z,7.70
2023-05-25T07:39:16.742Z,11.13
2023-05-25T07:41:45.390Z,10.03
2023-05-25T07:44:13.941Z,8.07
2023-05-25T07:46:43.516Z,13.43
2023-05-25T07:49:15.922Z,15.03
2023-05-25T07:51:44.807Z,9.07
2023-05-25T07:54:14.876Z,14.73
2023-05-25T07:56:43.594Z,12.40
2023-05-25T07:59:12.199Z,12.83
2023-05-25T08:01:40.847Z,9.60
2023-05-25T08:04:09.717Z,10.43
2023-05-25T08:06:38.600Z,8.70
2023-05-25T08:09:07.981Z,9.20
2023-05-25T08:11:38.013Z,19.73
2023-05-25T08:14:06.714Z,10.87
2023-05-25T08:16:35.318Z,12.13
2023-05-25T08:19:04.002Z,16.33
2023-05-25T08:21:35.000Z,9.43
2023-05-25T08:24:05.062Z,9.27
2023-05-25T08:26:53.070Z,5.83
2023-05-25T08:29:24.627Z,8.67
2023-05-25T08:31:53.236Z,14.93
2023-05-25T08:34:21.886Z,14.53
2023-05-25T08:36:51.079Z,13.17
2023-05-25T08:39:19.916Z,10.27
2023-05-25T08:41:49.231Z,8.90
2023-05-25T08:44:18.267Z,10.70
2023-05-25T08:46:50.196Z,10.47
2023-05-25T08:49:19.007Z,8.80
2023-05-25T08:51:50.857Z,7.70
2023-05-25T08:54:26.323Z,11.47
2023-05-25T08:56:59.946Z,10.70
2023-05-25T08:59:36.803Z,9.60
2023-05-25T09:02:22.088Z,7.63
2023-05-25T09:04:50.811Z,10.17
2023-05-25T09:07:19.979Z,5.60
2023-05-25T09:09:49.556Z,11.40
2023-05-25T09:12:19.653Z,6.53
2023-05-25T09:14:48.480Z,12.87
2023-05-25T09:17:20.031Z,6.47
2023-05-25T09:19:48.988Z,12.17
2023-05-25T09:22:17.741Z,7.87
2023-05-25T09:24:46.589Z,7.07
2023-05-25T09:27:19.606Z,4.37
2023-05-25T09:29:49.634Z,6.97
2023-05-25T09:32:20.362Z,13.97
2023-05-25T09:34:49.210Z,11.90
2023-05-25T09:37:19.752Z,10.33
2023-05-25T09:39:49.144Z,7.57
2023-05-25T09:42:17.945Z,7.37
2023-05-25T09:44:46.603Z,6.03
2023-05-25T09:47:16.837Z,7.67
2023-05-25T09:49:49.479Z,12.57
2023-05-25T09:52:18.389Z,11.10
2023-05-25T09:54:47.385Z,11.50
2023-05-25T09:57:17.202Z,11.80
2023-05-25T09:59:46.305Z,8.87
2023-05-25T10:02:15.527Z,11.80
2023-05-25T10:04:44.330Z,8.33
2023-05-25T10:07:16.206Z,7.67
2023-05-25T10:09:47.597Z,6.30
2023-05-25T10:12:20.176Z,5.83
2023-05-25T10:14:52.064Z,9.03
2023-05-25T10:17:24.641Z,4.93
2023-05-25T10:19:58.413Z,5.20
2023-05-25T10:22:33.368Z,5.03
2023-05-25T10:25:09.239Z,7.33
2023-05-25T10:27:41.759Z,6.07
2023-05-25T10:30:11.314Z,3.27
2023-05-25T10:32:40.432Z,5.07
2023-05-25T10:35:11.137Z,4.60
2023-05-25T10:37:41.464Z,4.00
2023-05-25T10:40:10.848Z,5.00
2023-05-25T10:42:39.841Z,4.20
2023-05-25T10:45:10.491Z,5.10
2023-05-25T10:47:42.700Z,3.27
2023-05-25T10:50:21.833Z,6.33
2023-05-25T10:53:01.502Z,3.50
2023-05-25T10:55:32.630Z,4.67
2023-05-25T10:58:09.401Z,6.57
2023-05-25T11:00:38.581Z,4.77
2023-05-25T11:03:07.709Z,4.43
2023-05-25T11:05:38.361Z,4.37
2023-05-25T11:08:12.145Z,7.13
2023-05-25T11:10:45.045Z,4.40
2023-05-25T11:13:40.855Z,4.23
2023-05-25T11:16:24.506Z,5.07
2023-05-25T11:18:58.570Z,4.63
2023-05-25T11:21:45.191Z,8.20
2023-05-25T11:24:19.013Z,6.57
2023-05-25T11:27:01.510Z,1.83
2023-05-25T11:29:33.125Z,3.13
2023-05-25T11:32:02.808Z,5.67
2023-05-25T11:34:33.200Z,6.07
2023-05-25T11:37:05.143Z,5.57
2023-05-25T11:39:35.101Z,1.97
2023-05-25T11:42:06.773Z,6.07
2023-05-25T11:44:38.008Z,8.20
2023-05-25T11:47:09.868Z,8.20
2023-05-25T11:49:44.194Z,4.77
2023-05-25T11:52:14.385Z,5.40
2023-05-25T11:54:44.833Z,8.47
2023-05-25T11:57:17.951Z,10.67
2023-05-25T11:59:51.082Z,6.67
2023-05-25T12:02:20.337Z,8.37
2023-05-25T12:04:56.183Z,9.73
2023-05-25T12:07:25.501Z,9.10
2023-05-25T12:10:06.296Z,7.97
2023-05-25T12:12:44.723Z,8.83
2023-05-25T12:15:15.949Z,7.50
2023-05-25T12:17:47.106Z,5.43
2023-05-25T12:20:17.687Z,6.17
2023-05-25T12:22:47.471Z,7.80
2023-05-25T12:25:23.872Z,10.17
2023-05-25T12:28:11.012Z,9.07
2023-05-25T12:30:39.710Z,6.33
2023-05-25T12:33:08.893Z,4.13
2023-05-25T12:35:47.692Z,8.50
2023-05-25T12:38:18.733Z,6.77
2023-05-25T12:40:48.841Z,5.03
2023-05-25T12:43:17.960Z,8.27
2023-05-25T12:45:46.587Z,2.37
2023-05-25T12:48:15.206Z,6.90
2023-05-25T12:50:58.674Z,9.37
2023-05-25T12:53:28.980Z,10.63
2023-05-25T12:56:06.570Z,6.27
2023-05-25T12:58:35.139Z,11.47
2023-05-25T13:01:03.932Z,5.50
2023-05-25T13:03:33.138Z,10.97
2023-05-25T13:06:02.898Z,14.27
2023-05-25T13:08:31.518Z,8.03
2023-05-25T13:11:01.368Z,11.33
2023-05-25T13:13:34.099Z,9.23
2023-05-25T13:16:02.721Z,10.23
2023-05-25T13:18:31.385Z,6.90
2023-05-25T13:21:00.557Z,13.07
2023-05-25T13:23:29.590Z,7.63
2023-05-25T13:25:58.353Z,9.63
2023-05-25T13:28:26.921Z,10.33
2023-05-25T13:30:56.955Z,10.70
2023-05-25T13:33:25.685Z,8.97
2023-05-25T13:35:59.774Z,6.97
2023-05-25T13:38:29.670Z,12.30
2023-05-25T13:40:58.455Z,9.90
2023-05-25T13:43:28.102Z,14.03
2023-05-25T13:45:59.066Z,10.93
2023-05-25T13:48:27.952Z,11.03
2023-05-25T13:50:56.559Z,8.40
2023-05-25T13:53:25.264Z,9.07
2023-05-25T13:55:54.406Z,15.10
2023-05-25T13:58:24.592Z,16.93
2023-05-25T14:00:53.227Z,10.10
2023-05-25T14:03:23.610Z,10.97
2023-05-25T14:05:53.818Z,10.57
2023-05-25T14:08:22.485Z,10.03
2023-05-25T14:10:51.086Z,15.90
2023-05-25T14:13:19.705Z,13.80
2023-05-25T14:15:48.581Z,15.47
2023-05-25T14:18:17.382Z,10.90
2023-05-25T14:20:47.714Z,16.20
2023-05-25T14:23:19.414Z,12.50
2023-05-25T14:25:49.838Z,12.70
2023-05-25T14:28:18.453Z,9.50
2023-05-25T14:30:47.417Z,16.17
2023-05-25T14:33:17.239Z,15.83
2023-05-25T14:35:47.434Z,12.83
2023-05-25T14:38:16.205Z,10.47
2023-05-25T14:40:44.893Z,11.80
2023-05-25T14:43:13.776Z,11.03
2023-05-25T14:45:42.528Z,10.97
2023-05-25T14:48:16.502Z,11.50
2023-05-25T14:50:47.206Z,10.73
2023-05-25T14:53:15.970Z,12.30
2023-05-25T14:55:44.791Z,9.87
2023-05-25T14:58:13.730Z,11.13
2023-05-25T15:00:42.320Z,14.80
2023-05-25T15:03:11.087Z,12.77
2023-05-25T15:05:39.674Z,11.63
2023-05-25T15:08:09.645Z,8.60
2023-05-25T15:10:38.265Z,18.37
2023-05-25T15:13:06.920Z,8.03
2023-05-25T15:15:35.879Z,7.43
2023-05-25T15:18:04.739Z,15.20
2023-05-25T15:20:33.702Z,11.93
2023-05-25T15:23:02.432Z,22.17
2023-05-25T15:25:35.467Z,15.17
2023-05-25T15:28:05.133Z,9.83
2023-05-25T15:30:34.348Z,14.27
2023-05-25T15:33:03.331Z,12.50
2023-05-25T15:35:32.494Z,10.57
2023-05-25T15:38:02.051Z,13.97
2023-05-25T15:40:32.228Z,16.20
2023-05-25T15:43:01.089Z,8.10
2023-05-25T15:45:29.667Z,15.33
2023-05-25T15:47:58.577Z,11.10
2023-05-25T15:50:27.278Z,14.57
2023-05-25T15:52:55.879Z,12.97
2023-05-25T15:55:24.581Z,15.43
2023-05-25T15:57:54.627Z,15.40
2023-05-25T16:00:23.345Z,10.47
2023-05-25T16:02:52.336Z,22.63
2023-05-25T16:05:21.132Z,18.70
2023-05-25T16:07:49.754Z,19.47
2023-05-25T16:10:18.954Z,13.00
2023-05-25T16:12:47.802Z,9.53
2023-05-25T16:15:17.899Z,24.23
2023-05-25T16:17:46.593Z,12.20
2023-05-25T16:20:15.437Z,16.77
2023-05-25T16:22:44.117Z,13.03
2023-05-25T16:25:12.781Z,14.80
2023-05-25T16:27:41.653Z,23.93
2023-05-25T16:30:13.199Z,9.23
2023-05-25T16:32:43.769Z,16.47
2023-05-25T16:35:13.223Z,13.47
2023-05-25T16:37:42.002Z,11.60
2023-05-25T16:40:11.579Z,16.53
2023-05-25T16:42:40.153Z,17.53
2023-05-25T16:45:09.663Z,14.77
2023-05-25T16:47:38.439Z,16.00
2023-05-25T16:50:09.947Z,13.90
2023-05-25T16:52:38.606Z,13.03
2023-05-25T16:55:08.469Z,10.30
2023-05-25T16:57:37.108Z,15.40
2023-05-25T17:00:07.411Z,19.50
2023-05-25T17:02:36.243Z,14.30
2023-05-25T17:05:06.641Z,10.10
2023-05-25T17:07:37.751Z,21.93
2023-05-25T17:10:07.804Z,11.50
2023-05-25T17:12:36.429Z,20.33
2023-05-25T17:15:05.995Z,15.90
2023-05-25T17:17:34.655Z,16.43
2023-05-25T17:20:04.139Z,12.43
2023-05-25T17:22:32.898Z,14.50
2023-05-25T17:25:03.502Z,13.43
2023-05-25T17:27:32.194Z,20.27
2023-05-25T17:30:00.808Z,17.67
2023-05-25T17:32:29.608Z,23.43
2023-05-25T17:34:58.191Z,13.80
2023-05-25T17:37:26.782Z,19.03
2023-05-25T17:39:55.353Z,20.83
2023-05-25T17:42:25.319Z,24.27
2023-05-25T17:44:53.979Z,17.47
2023-05-25T17:47:22.651Z,16.67
2023-05-25T17:49:51.227Z,13.50
2023-05-25T17:52:19.840Z,17.23
2023-05-25T17:54:48.408Z,16.87
2023-05-25T17:57:17.531Z,16.73
2023-05-25T17:59:47.509Z,24.00
2023-05-25T18:02:16.353Z,16.53
2023-05-25T18:04:45.237Z,24.50
2023-05-25T18:07:13.855Z,10.80
2023-05-25T18:09:42.516Z,13.10
2023-05-25T18:12:11.379Z,16.87
2023-05-25T18:14:40.013Z,12.37
2023-05-25T18:17:10.091Z,21.27
2023-05-25T18:19:38.933Z,25.43
2023-05-25T18:22:07.525Z,17.43
2023-05-25T18:24:36.282Z,12.03
2023-05-25T18:27:05.238Z,14.17
2023-05-25T18:29:33.836Z,21.17
2023-05-25T18:32:02.513Z,11.00
2023-05-25T18:34:32.492Z,15.40
2023-05-25T18:37:01.142Z,13.17
2023-05-25T18:39:29.777Z,14.57
2023-05-25T18:41:58.341Z,15.77
2023-05-25T18:44:28.396Z,15.60
2023-05-25T18:46:57.083Z,16.17
2023-05-25T18:49:26.262Z,18.63
2023-05-25T18:51:56.202Z,18.77
2023-05-25T18:54:24.789Z,12.83
2023-05-25T18:56:53.436Z,17.87
2023-05-25T18:59:21.993Z,16.77
2023-05-25T19:01:51.390Z,14.03
2023-05-25T19:04:20.289Z,17.33
2023-05-25T19:06:48.957Z,11.47
2023-05-25T19:09:19.000Z,13.50
2023-05-25T19:11:47.646Z,20.63
2023-05-25T19:14:16.264Z,18.27
2023-05-25T19:16:46.624Z,12.70
2023-05-25T19:19:16.701Z,20.77
2023-05-25T19:21:45.344Z,10.93
2023-05-25T19:24:14.097Z,16.07
2023-05-25T19:26:44.084Z,19.30
2023-05-25T19:29:12.846Z,16.40
2023-05-25T19:31:41.468Z,16.77
2023-05-25T19:34:10.118Z,20.67
2023-05-25T19:36:38.775Z,18.57
2023-05-25T19:39:07.371Z,18.80
2023-05-25T19:41:37.725Z,21.77
2023-05-25T19:44:07.726Z,14.67
2023-05-25T19:46:39.064Z,14.10
2023-05-25T19:49:07.758Z,23.63
2023-05-25T19:51:37.248Z,20.13
2023-05-25T19:54:05.935Z,18.77
2023-05-25T19:56:34.961Z,17.83
2023-05-25T19:59:03.800Z,24.07
2023-05-25T20:01:33.896Z,15.40
2023-05-25T20:04:02.765Z,24.10
2023-05-25T20:06:31.546Z,21.90
2023-05-25T20:09:00.216Z,16.03
2023-05-25T20:11:28.943Z,19.53
2023-05-25T20:13:57.611Z,12.00
2023-05-25T20:16:26.362Z,12.20
2023-05-25T20:18:56.330Z,21.53
2023-05-25T20:21:25.818Z,19.40
2023-05-25T20:23:54.539Z,13.27
2023-05-25T20:26:23.106Z,24.40
2023-05-25T20:28:51.674Z,10.77
2023-05-25T20:31:20.411Z,18.73
2023-05-25T20:33:49.019Z,17.00
2023-05-25T20:36:19.331Z,12.30
2023-05-25T20:38:47.985Z,16.27
2023-05-25T20:41:16.579Z,11.73
2023-05-25T20:43:45.281Z,15.27
2023-05-25T20:46:14.125Z,18.63
2023-05-25T20:48:42.862Z,18.53
2023-05-25T20:51:12.420Z,18.57
2023-05-25T20:53:42.374Z,10.10
2023-05-25T20:56:10.970Z,14.63
2023-05-25T20:58:39.773Z,12.87
2023-05-25T21:01:08.499Z,16.43
2023-05-25T21:03:37.327Z,21.53
2023-05-25T21:06:06.277Z,16.10
2023-05-25T21:08:34.883Z,16.17
2023-05-25T21:11:04.837Z,13.47
2023-05-25T21:13:33.422Z,24.57
2023-05-25T21:16:02.062Z,16.43
2023-05-25T21:18:30.666Z,19.00
2023-05-25T21:20:59.309Z,20.03
2023-05-25T21:23:28.652Z,22.63
2023-05-25T21:25:57.351Z,26.20
2023-05-25T21:28:27.485Z,14.00
2023-05-25T21:30:56.142Z,19.07
2023-05-25T21:33:24.823Z,16.30
2023-05-25T21:35:53.417Z,16.47
2023-05-25T21:38:21.994Z,20.80
2023-05-25T21:40:50.534Z,13.87
2023-05-25T21:43:19.120Z,13.10
2023-05-25T21:45:49.082Z,21.07
2023-05-25T21:48:17.690Z,10.60
2023-05-25T21:50:46.736Z,14.80
2023-05-25T21:53:15.624Z,18.10
2023-05-25T21:55:44.432Z,17.60
2023-05-25T21:58:13.712Z,15.53
2023-05-25T22:00:42.310Z,15.57
2023-05-25T22:03:12.372Z,18.40
2023-05-25T22:05:41.059Z,14.07
2023-05-25T22:08:09.657Z,18.10
2023-05-25T22:10:39.364Z,16.60
2023-05-25T22:13:07.970Z,24.00
2023-05-25T22:15:36.515Z,18.20
2023-05-25T22:18:05.929Z,22.53
2023-05-25T22:20:38.488Z,26.47
2023-05-25T22:23:07.156Z,18.10
2023-05-25T22:25:35.818Z,15.07
2023-05-25T22:28:04.536Z,13.63
2023-05-25T22:30:33.165Z,23.67
2023-05-25T22:33:01.830Z,16.43
2023-05-25T22:35:30.475Z,12.87
2023-05-25T22:38:00.426Z,21.37
2023-05-25T22:40:29.117Z,13.53
2023-05-25T22:42:57.713Z,14.47
2023-05-25T22:45:26.447Z,18.47
2023-05-25T22:47:55.044Z,13.90
2023-05-25T22:50:23.641Z,23.17
2023-05-25T22:52:52.190Z,18.33
2023-05-25T22:55:22.583Z,28.57
2023-05-25T22:57:51.351Z,20.67
2023-05-25T23:00:20.066Z,21.67
2023-05-25T23:02:48.767Z,19.87
2023-05-25T23:05:17.443Z,18.63
2023-05-25T23:07:46.048Z,16.00
2023-05-25T23:10:14.631Z,19.70
2023-05-25T23:12:44.668Z,21.77
2023-05-25T23:15:13.290Z,23.40
2023-05-25T23:17:41.868Z,17.20
2023-05-25T23:20:11.515Z,16.97
2023-05-25T23:22:40.092Z,25.27
2023-05-25T23:25:09.854Z,11.43
2023-05-25T23:27:38.424Z,11.90
2023-05-25T23:30:09.450Z,17.27
2023-05-25T23:32:38.193Z,21.83
2023-05-25T23:35:07.859Z,11.77
2023-05-25T23:37:36.461Z,15.23
2023-05-25T23:40:06.830Z,25.13
2023-05-25T23:42:40.009Z,20.47
2023-05-25T23:45:10.919Z,14.77
2023-05-25T23:47:39.585Z,26.47
2023-05-25T23:50:08.693Z,30.10
2023-05-25T23:52:37.321Z,30.90
2023-05-25T23:55:07.892Z,32.37
2023-05-25T23:57:36.986Z,15.13
